Time;durP1;ratioP1;P1;durP2;ratioP2;P2;SDS_P1;SDS_P2;PMS_P1;PMS_P2;Temp;Humidity;BMP_temperature;BMP_pressure;BME280_temperature;BME280_humidity;BME280_pressure;Samples;Min_cycle;Max_cycle;Signal;HPM_P1;HPM_P2
2022/05/04 00:00:09;;;;;;;;;;;12.30;99.90;;;;;;5045291;28;20044;-71
2022/05/04 00:02:36;;;;;;;;;;;12.30;99.90;;;;;;5044266;28;19955;-73
2022/05/04 00:05:02;;;;;;;;;;;12.30;99.90;;;;;;5045676;28;19921;-71
2022/05/04 00:07:30;;;;;;;;;;;12.30;99.90;;;;;;5045554;28;20126;-71
2022/05/04 00:09:57;;;;;;;;;;;12.20;99.90;;;;;;5041167;28;20001;-71
2022/05/04 00:12:23;;;;;;;;;;;12.20;99.90;;;;;;5045303;28;19988;-71
2022/05/04 00:14:50;;;;;;;;;;;12.20;99.90;;;;;;5044825;28;19921;-70
2022/05/04 00:17:17;;;;;;;;;;;12.10;99.90;;;;;;5039748;28;19921;-71
2022/05/04 00:19:43;;;;;;;;;;;12.10;99.90;;;;;;5050310;28;20397;-71
2022/05/04 00:22:10;;;;;;;;;;;12.10;99.90;;;;;;5043935;28;19928;-71
2022/05/04 00:24:37;;;;;;;;;;;12.00;99.90;;;;;;5057233;28;19940;-70
2022/05/04 00:27:04;;;;;;;;;;;12.00;99.90;;;;;;5042775;28;20556;-71
2022/05/04 00:29:31;;;;;;;;;;;11.90;99.90;;;;;;5044389;28;19928;-71
2022/05/04 00:31:57;;;;;;;;;;;11.90;99.90;;;;;;5044811;28;20035;-71
2022/05/04 00:34:24;;;;;;;;;;;11.90;99.90;;;;;;5043557;28;19982;-71
2022/05/04 00:36:50;;;;;;;;;;;11.90;99.90;;;;;;5035618;28;20068;-71
2022/05/04 00:39:17;;;;;;;;;;;11.90;99.90;;;;;;5048249;28;20377;-71
2022/05/04 00:41:44;;;;;;;;;;;11.80;99.90;;;;;;5041374;28;20054;-71
2022/05/04 00:44:11;;;;;;;;;;;11.80;99.90;;;;;;5044822;28;19921;-71
2022/05/04 00:46:37;;;;;;;;;;;11.80;99.90;;;;;;5043960;28;19932;-71
2022/05/04 00:49:04;;;;;;;;;;;11.80;99.90;;;;;;5046258;28;20006;-73
2022/05/04 00:51:30;;;;;;;;;;;11.70;99.90;;;;;;5043398;28;20370;-71
2022/05/04 00:53:57;;;;;;;;;;;11.60;99.90;;;;;;5045412;28;20002;-71
2022/05/04 00:56:24;;;;;;;;;;;11.50;99.90;;;;;;5043778;28;20003;-71
2022/05/04 00:58:56;;;;;;;;;;;11.50;99.90;;;;;;5033604;28;19925;-70
2022/05/04 01:01:24;;;;;;;;;;;11.40;99.90;;;;;;5044390;28;19940;-70
2022/05/04 01:03:51;;;;;;;;;;;11.40;99.90;;;;;;5044381;28;19921;-71
2022/05/04 01:06:18;;;;;;;;;;;11.40;99.90;;;;;;5039882;28;20355;-70
2022/05/04 01:08:44;;;;;;;;;;;11.40;99.90;;;;;;5045047;28;19990;-71
2022/05/04 01:11:11;;;;;;;;;;;11.40;99.90;;;;;;5046025;28;19927;-71
2022/05/04 01:13:37;;;;;;;;;;;11.40;99.90;;;;;;5043877;28;19924;-70
2022/05/04 01:16:05;;;;;;;;;;;11.30;99.90;;;;;;5048239;28;20342;-71
2022/05/04 01:18:32;;;;;;;;;;;11.30;99.90;;;;;;5044645;28;20007;-71
2022/05/04 01:20:58;;;;;;;;;;;11.30;99.90;;;;;;5045619;28;20317;-71
2022/05/04 01:23:28;;;;;;;;;;;11.30;99.90;;;;;;5042937;28;19998;-71
2022/05/04 01:25:54;;;;;;;;;;;11.20;99.90;;;;;;5040990;28;19928;-71
2022/05/04 01:28:21;;;;;;;;;;;11.20;99.90;;;;;;5042386;28;19986;-70
2022/05/04 01:30:47;;;;;;;;;;;11.20;99.90;;;;;;5047862;28;20318;-70
2022/05/04 01:33:14;;;;;;;;;;;11.20;99.90;;;;;;5046238;28;20012;-70
2022/05/04 01:35:40;;;;;;;;;;;11.10;99.90;;;;;;5045978;28;19928;-69
2022/05/04 01:38:07;;;;;;;;;;;11.10;99.90;;;;;;5047948;28;19925;-71
2022/05/04 01:40:35;;;;;;;;;;;11.10;99.90;;;;;;5040939;28;19921;-72
2022/05/04 01:43:01;;;;;;;;;;;11.00;99.90;;;;;;5045768;28;19924;-70
2022/05/04 01:45:28;;;;;;;;;;;11.00;99.90;;;;;;5048132;28;19998;-70
2022/05/04 01:47:54;;;;;;;;;;;11.00;99.90;;;;;;5048141;28;19921;-70
2022/05/04 01:50:21;;;;;;;;;;;11.00;99.90;;;;;;5047513;28;20545;-69
2022/05/04 01:52:47;;;;;;;;;;;11.00;99.90;;;;;;5039521;28;19928;-70
2022/05/04 01:55:15;;;;;;;;;;;10.90;99.90;;;;;;5046527;28;19929;-68
2022/05/04 01:57:42;;;;;;;;;;;10.90;99.90;;;;;;5044827;28;19920;-69
2022/05/04 02:00:09;;;;;;;;;;;10.90;99.90;;;;;;5048691;28;19971;-70
2022/05/04 02:02:36;;;;;;;;;;;10.90;99.90;;;;;;5042238;28;19987;-70
2022/05/04 02:05:04;;;;;;;;;;;10.90;99.90;;;;;;5049378;28;19998;-70
2022/05/04 02:07:31;;;;;;;;;;;10.80;99.90;;;;;;5045125;28;20033;-70
2022/05/04 02:09:58;;;;;;;;;;;10.80;99.90;;;;;;5046491;28;20105;-70
2022/05/04 02:12:26;;;;;;;;;;;10.80;99.90;;;;;;5045923;28;20398;-70
2022/05/04 02:14:54;;;;;;;;;;;10.70;99.90;;;;;;5043405;28;19989;-69
2022/05/04 02:17:21;;;;;;;;;;;10.70;99.90;;;;;;5046417;28;19932;-69
2022/05/04 02:19:47;;;;;;;;;;;10.70;99.90;;;;;;5046302;28;20488;-70
2022/05/04 02:22:14;;;;;;;;;;;10.70;99.90;;;;;;5042047;28;19982;-69
2022/05/04 02:24:40;;;;;;;;;;;10.60;99.90;;;;;;5049399;28;19929;-70
2022/05/04 02:27:07;;;;;;;;;;;10.60;99.90;;;;;;5044471;28;19986;-71
2022/05/04 02:29:33;;;;;;;;;;;10.60;99.90;;;;;;5047641;28;20417;-70
2022/05/04 02:32:01;;;;;;;;;;;10.60;99.90;;;;;;5051688;28;20008;-70
2022/05/04 02:34:28;;;;;;;;;;;10.50;99.90;;;;;;5046647;28;20020;-70
2022/05/04 02:39:38;;;;;;;;;;;10.40;99.90;;;;;;5045019;28;19947;-70
2022/05/04 02:42:06;;;;;;;;;;;10.40;99.90;;;;;;5045838;28;19921;-70
2022/05/04 02:44:32;;;;;;;;;;;10.30;99.90;;;;;;5047367;28;20318;-69
2022/05/04 02:46:59;;;;;;;;;;;10.30;99.90;;;;;;5040292;28;19986;-70
2022/05/04 02:49:26;;;;;;;;;;;10.30;99.90;;;;;;5041155;28;19925;-70
2022/05/04 02:51:53;;;;;;;;;;;10.30;99.90;;;;;;5045585;28;19928;-70
2022/05/04 02:54:19;;;;;;;;;;;10.20;99.90;;;;;;5045270;28;19925;-69
2022/05/04 02:56:46;;;;;;;;;;;10.20;99.90;;;;;;5044933;28;19932;-70
2022/05/04 02:59:12;;;;;;;;;;;10.20;99.90;;;;;;5046659;28;20298;-70
2022/05/04 03:04:32;;;;;;;;;;;10.10;99.90;;;;;;5044790;28;19990;-70
2022/05/04 03:06:58;;;;;;;;;;;10.10;99.90;;;;;;5044749;28;19928;-70
2022/05/04 03:09:25;;;;;;;;;;;10.10;99.90;;;;;;5054054;28;20327;-70
2022/05/04 03:11:57;;;;;;;;;;;10.20;99.90;;;;;;5051988;28;19987;-70
2022/05/04 03:14:24;;;;;;;;;;;10.20;99.90;;;;;;5047009;28;19924;-71
2022/05/04 03:16:51;;;;;;;;;;;10.20;99.90;;;;;;5043135;28;20298;-70
2022/05/04 03:19:18;;;;;;;;;;;10.20;99.90;;;;;;5045135;28;20655;-70
2022/05/04 03:21:47;;;;;;;;;;;10.20;99.90;;;;;;5046149;28;19924;-69
2022/05/04 03:24:13;;;;;;;;;;;10.20;99.90;;;;;;5060026;28;20038;-70
2022/05/04 03:26:40;;;;;;;;;;;10.20;99.90;;;;;;5047788;28;20359;-70
2022/05/04 03:29:06;;;;;;;;;;;10.20;99.90;;;;;;5056750;28;19931;-71
2022/05/04 03:31:33;;;;;;;;;;;10.20;99.90;;;;;;5042837;28;19924;-70
2022/05/04 03:33:59;;;;;;;;;;;10.10;99.90;;;;;;5045632;28;19955;-70
2022/05/04 03:36:26;;;;;;;;;;;10.10;99.90;;;;;;5043345;28;20012;-70
2022/05/04 03:38:54;;;;;;;;;;;10.00;99.90;;;;;;5044402;28;19927;-70
2022/05/04 03:41:21;;;;;;;;;;;9.90;99.90;;;;;;5042402;28;19932;-70
2022/05/04 03:43:47;;;;;;;;;;;9.80;99.90;;;;;;5039928;28;19931;-70
2022/05/04 03:46:15;;;;;;;;;;;9.70;99.90;;;;;;5046117;28;19933;-70
2022/05/04 03:48:42;;;;;;;;;;;9.70;99.90;;;;;;5042074;28;19965;-70
2022/05/04 03:51:09;;;;;;;;;;;9.60;99.90;;;;;;5044222;28;19933;-70
2022/05/04 03:53:36;;;;;;;;;;;9.60;99.90;;;;;;5043153;28;19924;-70
2022/05/04 03:56:04;;;;;;;;;;;9.50;99.90;;;;;;5043920;28;20238;-70
2022/05/04 03:58:30;;;;;;;;;;;9.50;99.90;;;;;;5039616;28;20082;-70
2022/05/04 04:00:57;;;;;;;;;;;9.40;99.90;;;;;;5040543;28;20019;-70
2022/05/04 04:03:23;;;;;;;;;;;9.40;99.90;;;;;;5040506;28;19965;-70
2022/05/04 04:05:50;;;;;;;;;;;9.30;99.90;;;;;;5045073;28;19980;-70
2022/05/04 04:08:16;;;;;;;;;;;9.30;99.90;;;;;;5046457;28;20005;-70
2022/05/04 04:10:43;;;;;;;;;;;9.20;99.90;;;;;;5040289;28;19940;-70
2022/05/04 04:13:11;;;;;;;;;;;9.20;99.90;;;;;;5038792;28;19928;-70
2022/05/04 04:15:37;;;;;;;;;;;9.10;99.90;;;;;;5043098;28;19931;-71
2022/05/04 04:18:04;;;;;;;;;;;9.00;99.90;;;;;;5046453;28;19982;-70
2022/05/04 04:23:15;;;;;;;;;;;8.90;99.90;;;;;;5040016;28;20033;-70
2022/05/04 04:25:41;;;;;;;;;;;8.90;99.90;;;;;;5044029;28;19998;-70
2022/05/04 04:28:09;;;;;;;;;;;8.90;99.90;;;;;;5042769;28;20444;-72
2022/05/04 04:30:38;;;;;;;;;;;8.90;99.90;;;;;;5045952;28;19954;-69
2022/05/04 04:33:06;;;;;;;;;;;8.90;99.90;;;;;;5047937;28;19940;-70
2022/05/04 04:35:33;;;;;;;;;;;8.80;99.90;;;;;;5045203;28;19984;-71
2022/05/04 04:38:00;;;;;;;;;;;8.90;99.90;;;;;;5049376;28;19924;-71
2022/05/04 04:40:26;;;;;;;;;;;8.90;99.90;;;;;;5044959;28;19936;-70
2022/05/04 04:42:53;;;;;;;;;;;8.80;99.90;;;;;;5044556;28;20430;-70
2022/05/04 04:45:20;;;;;;;;;;;8.80;99.90;;;;;;5045305;28;19947;-70
2022/05/04 04:47:48;;;;;;;;;;;8.80;99.90;;;;;;5045550;28;20026;-72
2022/05/04 04:50:15;;;;;;;;;;;8.80;99.90;;;;;;5049540;28;20584;-71
2022/05/04 04:52:41;;;;;;;;;;;8.80;99.90;;;;;;5040909;28;19924;-73
2022/05/04 04:55:08;;;;;;;;;;;8.80;99.90;;;;;;5038810;28;19936;-72
2022/05/04 04:57:35;;;;;;;;;;;8.90;99.90;;;;;;5044957;28;19924;-71
2022/05/04 05:00:01;;;;;;;;;;;8.80;99.90;;;;;;5042452;28;20270;-70
2022/05/04 05:02:28;;;;;;;;;;;8.80;99.90;;;;;;5035449;28;19933;-72
2022/05/04 05:04:56;;;;;;;;;;;8.70;99.90;;;;;;5047565;28;19928;-70
2022/05/04 05:07:22;;;;;;;;;;;8.70;99.90;;;;;;5045283;28;19921;-71
2022/05/04 05:09:49;;;;;;;;;;;8.70;99.90;;;;;;5040309;28;19978;-71
2022/05/04 05:12:16;;;;;;;;;;;8.70;99.90;;;;;;5044818;28;19932;-71
2022/05/04 05:17:28;;;;;;;;;;;8.70;99.90;;;;;;5042937;28;20432;-71
2022/05/04 05:19:55;;;;;;;;;;;8.70;99.90;;;;;;5042995;28;19957;-71
2022/05/04 05:22:22;;;;;;;;;;;8.70;99.90;;;;;;5044649;28;19921;-71
2022/05/04 05:24:49;;;;;;;;;;;8.70;99.90;;;;;;5042674;28;19931;-71
2022/05/04 05:27:15;;;;;;;;;;;8.80;99.90;;;;;;5036372;28;20066;-70
2022/05/04 05:29:42;;;;;;;;;;;8.80;99.90;;;;;;5038749;28;20026;-71
2022/05/04 05:32:09;;;;;;;;;;;8.80;99.90;;;;;;5041134;28;19990;-71
2022/05/04 05:34:35;;;;;;;;;;;8.80;99.90;;;;;;5054751;28;20290;-69
2022/05/04 05:37:03;;;;;;;;;;;8.90;99.90;;;;;;5040689;28;20019;-71
2022/05/04 05:39:30;;;;;;;;;;;8.90;99.90;;;;;;5042542;28;20740;-70
2022/05/04 05:41:56;;;;;;;;;;;9.00;99.90;;;;;;5044027;28;19991;-71
2022/05/04 05:44:23;;;;;;;;;;;9.00;99.90;;;;;;5043462;28;20354;-70
2022/05/04 05:46:49;;;;;;;;;;;9.00;99.90;;;;;;5042429;28;19965;-70
2022/05/04 05:49:16;;;;;;;;;;;8.90;99.90;;;;;;5042231;28;19998;-71
2022/05/04 05:51:43;;;;;;;;;;;8.90;99.90;;;;;;5041901;28;19985;-71
2022/05/04 05:54:11;;;;;;;;;;;8.90;99.90;;;;;;5040386;28;19931;-71
2022/05/04 05:56:37;;;;;;;;;;;8.80;99.90;;;;;;5044556;28;20015;-71
2022/05/04 05:59:04;;;;;;;;;;;8.90;99.90;;;;;;5038520;28;19931;-70
2022/05/04 06:01:31;;;;;;;;;;;8.90;99.90;;;;;;5042062;28;19996;-69
2022/05/04 06:03:58;;;;;;;;;;;9.00;99.90;;;;;;5042101;28;19924;-69
2022/05/04 06:06:24;;;;;;;;;;;9.00;99.90;;;;;;5042736;28;19933;-72
2022/05/04 06:08:51;;;;;;;;;;;9.10;99.90;;;;;;5043888;28;19982;-70
2022/05/04 06:11:19;;;;;;;;;;;9.20;99.90;;;;;;5036963;28;19932;-70
2022/05/04 06:13:45;;;;;;;;;;;9.40;99.90;;;;;;5043681;28;19979;-70
2022/05/04 06:16:12;;;;;;;;;;;9.60;99.90;;;;;;5045004;28;20606;-70
2022/05/04 06:18:38;;;;;;;;;;;9.70;99.90;;;;;;5057478;28;19921;-70
2022/05/04 06:21:05;;;;;;;;;;;9.80;99.90;;;;;;5043979;28;19928;-70
2022/05/04 06:23:31;;;;;;;;;;;9.90;99.90;;;;;;5034728;28;20290;-70
2022/05/04 06:25:58;;;;;;;;;;;9.90;99.90;;;;;;5042272;28;19986;-70
2022/05/04 06:28:26;;;;;;;;;;;10.00;99.90;;;;;;5046969;28;20370;-70
2022/05/04 06:36:20;;;;;;;;;;;10.10;99.90;;;;;;5046106;28;20441;-70
2022/05/04 06:38:47;;;;;;;;;;;10.10;99.90;;;;;;5045589;28;19957;-69
2022/05/04 06:41:14;;;;;;;;;;;10.20;99.90;;;;;;5048624;28;19926;-70
2022/05/04 06:43:43;;;;;;;;;;;10.20;99.90;;;;;;5047741;28;19928;-70
2022/05/04 06:46:09;;;;;;;;;;;10.10;99.90;;;;;;5051251;28;20348;-70
2022/05/04 06:48:36;;;;;;;;;;;10.10;99.90;;;;;;5057329;28;19932;-71
2022/05/04 06:51:02;;;;;;;;;;;10.00;99.90;;;;;;5039256;28;19967;-70
2022/05/04 06:53:29;;;;;;;;;;;10.00;99.90;;;;;;5046847;28;20451;-70
2022/05/04 06:55:55;;;;;;;;;;;10.00;99.90;;;;;;5046664;28;19924;-69
2022/05/04 06:58:22;;;;;;;;;;;10.10;99.90;;;;;;5043604;28;20395;-70
2022/05/04 07:00:50;;;;;;;;;;;10.20;99.90;;;;;;5046530;28;19994;-72
2022/05/04 07:03:16;;;;;;;;;;;10.40;99.90;;;;;;5047911;28;20030;-70
2022/05/04 07:05:43;;;;;;;;;;;10.70;99.90;;;;;;5045685;28;19920;-69
2022/05/04 07:08:10;;;;;;;;;;;10.90;99.90;;;;;;5045835;28;19998;-71
2022/05/04 07:10:37;;;;;;;;;;;11.10;99.90;;;;;;5045123;28;20362;-72
2022/05/04 07:13:03;;;;;;;;;;;11.30;99.90;;;;;;5051223;28;19940;-71
2022/05/04 07:15:30;;;;;;;;;;;11.50;99.90;;;;;;5031990;28;19940;-71
2022/05/04 07:17:58;;;;;;;;;;;11.60;99.90;;;;;;5044995;28;19967;-71
2022/05/04 07:20:25;;;;;;;;;;;11.70;99.90;;;;;;5046670;28;19981;-69
2022/05/04 07:22:51;;;;;;;;;;;11.90;99.90;;;;;;5045347;28;20019;-69
2022/05/04 07:25:18;;;;;;;;;;;12.00;99.90;;;;;;5045279;28;20000;-70
2022/05/04 07:27:44;;;;;;;;;;;12.20;99.90;;;;;;5047352;28;19928;-70
2022/05/04 07:30:12;;;;;;;;;;;12.50;99.90;;;;;;5058603;28;20394;-70
2022/05/04 07:32:38;;;;;;;;;;;12.80;99.90;;;;;;5046695;28;19979;-70
2022/05/04 07:35:08;;;;;;;;;;;13.00;99.90;;;;;;5046717;28;19990;-70
2022/05/04 07:37:34;;;;;;;;;;;13.10;99.90;;;;;;5045732;28;19932;-71
2022/05/04 07:42:45;;;;;;;;;;;12.90;99.90;;;;;;5045880;28;19939;-71
2022/05/04 07:45:13;;;;;;;;;;;13.00;99.90;;;;;;5040571;28;19924;-71
2022/05/04 07:47:40;;;;;;;;;;;13.00;99.90;;;;;;5049277;28;19927;-73
2022/05/04 07:50:09;;;;;;;;;;;13.10;99.90;;;;;;5046506;28;19921;-71
2022/05/04 07:52:36;;;;;;;;;;;13.20;99.90;;;;;;5046338;28;19947;-70
2022/05/04 07:55:02;;;;;;;;;;;13.40;99.90;;;;;;5036858;28;20367;-70
2022/05/04 07:57:29;;;;;;;;;;;13.80;99.90;;;;;;5043483;28;19928;-70
2022/05/04 08:05:21;;;;;;;;;;;14.70;99.90;;;;;;5022137;28;20370;-70
2022/05/04 08:07:48;;;;;;;;;;;15.10;99.90;;;;;;5045473;28;19995;-70
2022/05/04 08:10:14;;;;;;;;;;;15.40;99.90;;;;;;5041279;28;21256;-70
2022/05/04 08:12:41;;;;;;;;;;;15.50;99.90;;;;;;5044394;28;20016;-71
2022/05/04 08:15:08;;;;;;;;;;;15.70;99.90;;;;;;5045840;28;19990;-71
2022/05/04 08:17:35;;;;;;;;;;;15.50;99.90;;;;;;5045038;28;19974;-71
2022/05/04 08:20:01;;;;;;;;;;;15.40;99.90;;;;;;5044902;28;20309;-71
2022/05/04 08:22:29;;;;;;;;;;;15.50;99.90;;;;;;5044557;28;19921;-70
2022/05/04 08:24:56;;;;;;;;;;;15.70;99.90;;;;;;5041193;28;19925;-70
2022/05/04 08:27:22;;;;;;;;;;;15.90;99.90;;;;;;5041416;28;19924;-70
2022/05/04 08:29:49;;;;;;;;;;;16.30;99.90;;;;;;5045383;28;19966;-70
2022/05/04 08:32:15;;;;;;;;;;;16.50;99.90;;;;;;5045966;28;20371;-70
2022/05/04 08:34:42;;;;;;;;;;;16.60;99.90;;;;;;5045403;28;19929;-70
2022/05/04 08:37:08;;;;;;;;;;;16.80;99.90;;;;;;5045552;28;20294;-70
2022/05/04 08:39:36;;;;;;;;;;;17.10;99.90;;;;;;5044229;28;19936;-70
2022/05/04 08:42:03;;;;;;;;;;;17.50;99.90;;;;;;5043964;28;20414;-70
2022/05/04 08:44:30;;;;;;;;;;;17.40;99.90;;;;;;5045200;28;19925;-71
2022/05/04 08:46:59;;;;;;;;;;;17.50;99.90;;;;;;5044856;28;19980;-71
2022/05/04 08:49:29;;;;;;;;;;;17.50;99.90;;;;;;5044758;28;19931;-70
2022/05/04 08:51:56;;;;;;;;;;;17.60;99.90;;;;;;5036799;28;19929;-71
2022/05/04 08:54:22;;;;;;;;;;;17.40;99.90;;;;;;5040345;28;20000;-71
2022/05/04 08:56:50;;;;;;;;;;;17.40;99.90;;;;;;5044662;28;20024;-70
2022/05/04 08:59:16;;;;;;;;;;;17.30;99.90;;;;;;5041070;28;19925;-70
2022/05/04 09:01:45;;;;;;;;;;;17.30;99.90;;;;;;5038011;28;19924;-70
2022/05/04 09:04:11;;;;;;;;;;;17.50;99.90;;;;;;5031463;28;19924;-70
2022/05/04 09:06:43;;;;;;;;;;;17.70;99.90;;;;;;5044314;28;20012;-70
2022/05/04 09:09:10;;;;;;;;;;;18.00;99.90;;;;;;5043023;28;19928;-71
2022/05/04 09:11:37;;;;;;;;;;;18.10;99.90;;;;;;5038505;28;19996;-70
2022/05/04 09:14:09;;;;;;;;;;;18.30;99.90;;;;;;5044142;28;20248;-71
2022/05/04 09:16:35;;;;;;;;;;;18.50;99.90;;;;;;5042602;28;19963;-71
2022/05/04 09:19:02;;;;;;;;;;;18.60;99.90;;;;;;5043283;28;22018;-70
2022/05/04 09:21:29;;;;;;;;;;;18.70;99.90;;;;;;5045984;28;19921;-71
2022/05/04 09:23:55;;;;;;;;;;;18.60;99.90;;;;;;5043056;28;19925;-75
2022/05/04 09:26:22;;;;;;;;;;;18.70;99.90;;;;;;5040845;28;19997;-70
2022/05/04 09:28:49;;;;;;;;;;;18.60;99.90;;;;;;5045163;28;20393;-70
2022/05/04 09:31:18;;;;;;;;;;;18.50;99.90;;;;;;5044879;28;20383;-71
2022/05/04 09:33:52;;;;;;;;;;;18.50;99.90;;;;;;5043244;28;20012;-71
2022/05/04 09:36:29;;;;;;;;;;;18.80;99.90;;;;;;5052180;28;19928;-69
2022/05/04 09:47:19;;;;;;;;;;;20.40;99.90;;;;;;5041372;28;19986;-69
2022/05/04 09:49:47;;;;;;;;;;;20.20;99.90;;;;;;5041855;28;19936;-69
2022/05/04 09:52:14;;;;;;;;;;;20.10;99.90;;;;;;5046689;28;19939;-70
2022/05/04 09:54:40;;;;;;;;;;;20.10;99.90;;;;;;5042152;28;19986;-69
2022/05/04 09:57:07;;;;;;;;;;;20.20;99.90;;;;;;5039143;28;19937;-71
2022/05/04 09:59:34;;;;;;;;;;;20.10;99.90;;;;;;5048529;28;19927;-70
2022/05/04 10:02:03;;;;;;;;;;;20.10;99.90;;;;;;5056019;28;20016;-71
2022/05/04 10:04:32;;;;;;;;;;;20.10;99.90;;;;;;5047796;28;19921;-71
2022/05/04 10:07:00;;;;;;;;;;;20.50;99.90;;;;;;5048318;28;19924;-71
2022/05/04 10:09:27;;;;;;;;;;;20.90;99.90;;;;;;5042647;28;19929;-71
2022/05/04 10:11:57;;;;;;;;;;;21.10;99.90;;;;;;5048836;28;19984;-71
2022/05/04 10:14:24;;;;;;;;;;;21.20;99.90;;;;;;5048148;28;19931;-71
2022/05/04 10:16:54;;;;;;;;;;;20.90;99.90;;;;;;5056702;28;19924;-71
2022/05/04 10:19:23;;;;;;;;;;;20.90;99.90;;;;;;5062814;23;19920;-69
2022/05/04 10:21:53;;;;;;;;;;;20.90;99.90;;;;;;5066941;28;19924;-68
2022/05/04 10:24:20;;;;;;;;;;;21.10;99.90;;;;;;5071329;28;19927;-70
2022/05/04 10:26:47;;;;;;;;;;;21.20;99.90;;;;;;5064505;28;19921;-69
2022/05/04 10:32:32;;;;;;;;;;;21.30;99.90;;;;;;5069441;28;19931;-68
2022/05/04 10:35:17;;;;;;;;;;;21.70;99.90;;;;;;5067799;28;19977;-69
2022/05/04 10:38:03;;;;;;;;;;;22.10;99.90;;;;;;5072053;28;19936;-68
2022/05/04 10:40:31;;;;;;;;;;;22.20;99.90;;;;;;5060630;28;19993;-69
2022/05/04 10:42:58;;;;;;;;;;;22.40;99.90;;;;;;5066825;28;19981;-69
2022/05/04 10:45:28;;;;;;;;;;;22.60;99.90;;;;;;5071801;28;19924;-69
2022/05/04 10:48:13;;;;;;;13.10;7.95;;;22.70;99.90;;;;;;5069914;28;20460;-69
2022/05/04 10:50:51;;;;;;;8.13;7.30;;;22.70;99.90;;;;;;5065662;28;20227;-69
2022/05/04 10:53:34;;;;;;;;;;;22.90;99.90;;;;;;5070296;28;20459;-69
2022/05/04 10:56:03;;;;;;;;;;;23.00;99.90;;;;;;5066449;28;20475;-69
2022/05/04 10:58:36;;;;;;;;;;;23.00;99.90;;;;;;5071234;28;19932;-70
2022/05/04 11:01:07;;;;;;;;;;;22.90;99.90;;;;;;5070288;28;19946;-70
2022/05/04 11:03:38;;;;;;;;;;;22.80;99.90;;;;;;5067265;28;19990;-69
2022/05/04 11:06:08;;;;;;;;;;;22.70;99.90;;;;;;5052006;28;19982;-69
2022/05/04 11:08:36;;;;;;;;;;;22.70;99.90;;;;;;5070060;28;19978;-69
2022/05/04 11:11:03;;;;;;;;;;;22.60;99.90;;;;;;5062104;28;19921;-70
2022/05/04 11:13:30;;;;;;;;;;;22.60;99.90;;;;;;5068298;28;19928;-70
2022/05/04 11:15:58;;;;;;;;;;;22.80;99.90;;;;;;5071273;28;19931;-70
2022/05/04 11:18:26;;;;;;;;;;;23.00;99.90;;;;;;5069371;28;19928;-70
2022/05/04 11:20:52;;;;;;;;;;;23.10;99.90;;;;;;5069643;28;19924;-70
2022/05/04 11:23:23;;;;;;;;;;;23.40;99.90;;;;;;5069652;28;19920;-72
2022/05/04 11:25:51;;;;;;;;;;;23.90;99.90;;;;;;5067880;28;19924;-70
2022/05/04 11:28:18;;;;;;;;;;;24.20;99.90;;;;;;5070937;28;19982;-70
2022/05/04 11:30:45;;;;;;;;;;;24.10;99.90;;;;;;5070715;28;20295;-69
2022/05/04 11:33:14;;;;;;;10.48;8.32;;;24.20;99.90;;;;;;5063614;28;20503;-70
2022/05/04 11:35:43;;;;;;;8.43;7.13;;;24.30;99.90;;;;;;5069855;28;20204;-70
2022/05/04 11:38:17;;;;;;;9.73;7.50;;;24.40;99.90;;;;;;5067956;28;21089;-69
2022/05/04 11:40:45;;;;;;;10.13;7.60;;;24.50;99.90;;;;;;5065756;28;20580;-71
2022/05/04 11:43:24;;;;;;;8.10;7.30;;;24.50;99.90;;;;;;5069903;28;20990;-69
2022/05/04 11:45:51;;;;;;;8.60;7.80;;;24.50;99.90;;;;;;5069907;28;20487;-70
2022/05/04 11:48:18;;;;;;;8.43;7.53;;;24.20;99.00;;;;;;5066324;28;20467;-71
2022/05/04 11:50:45;;;;;;;8.73;7.80;;;23.70;99.60;;;;;;5067093;28;20483;-70
2022/05/04 11:53:12;;;;;;;9.17;8.17;;;23.60;99.90;;;;;;5065857;28;20458;-70
2022/05/04 11:55:38;;;;;;;8.47;7.60;;;23.70;99.60;;;;;;5064724;28;20451;-71
2022/05/04 11:58:08;;;;;;;8.70;7.87;;;23.80;99.90;;;;;;5070035;28;20446;-70
2022/05/04 12:00:37;;;;;;;9.30;7.57;;;24.10;99.10;;;;;;5061101;28;20958;-70
2022/05/04 12:03:05;;;;;;;8.37;6.93;;;24.20;98.40;;;;;;5068881;28;20466;-71
2022/05/04 12:05:32;;;;;;;14.67;8.63;;;24.10;98.10;;;;;;5066493;28;20510;-70
2022/05/04 12:07:59;;;;;;;;;;;24.00;98.80;;;;;;5068165;28;20516;-70
2022/05/04 12:10:26;;;;;;;11.23;8.90;;;24.00;97.80;;;;;;5065114;28;20439;-69
2022/05/04 12:12:53;;;;;;;11.47;10.20;;;24.00;97.40;;;;;;5068673;28;20204;-70
2022/05/04 12:15:23;;;;;;;11.37;9.80;;;23.40;97.10;;;;;;5066103;28;20941;-69
2022/05/04 12:17:58;;;;;;;10.50;8.80;;;23.10;97.50;;;;;;5066720;28;20474;-70
2022/05/04 12:20:24;;;;;;;;;;;23.10;98.40;;;;;;5063984;28;20626;-69
2022/05/04 12:22:51;;;;;;;;;;;23.20;97.80;;;;;;5066655;28;19985;-69
2022/05/04 12:25:19;;;;;;;;;;;23.30;98.40;;;;;;5066571;28;20420;-69
2022/05/04 12:27:46;;;;;;;;;;;23.60;98.30;;;;;;5068621;28;19924;-68
2022/05/04 12:33:11;;;;;;;;;;;24.80;98.50;;;;;;5066405;28;19931;-70
2022/05/04 12:35:39;;;;;;;;;;;25.50;96.90;;;;;;5058167;28;19932;-69
2022/05/04 12:38:06;;;;;;;;;;;26.10;96.50;;;;;;5068777;28;19932;-69
2022/05/04 12:40:33;;;;;;;;;;;26.00;96.00;;;;;;5067311;28;19924;-68
2022/05/04 12:43:00;;;;;;;;;;;25.70;94.90;;;;;;5061670;28;20448;-69
2022/05/04 12:45:26;;;;;;;;;;;25.50;95.10;;;;;;5057217;28;19992;-69
2022/05/04 12:47:54;;;;;;;9.00;7.40;;;25.60;95.50;;;;;;5068340;28;19936;-69
2022/05/04 12:50:24;;;;;;;9.57;7.60;;;25.90;95.00;;;;;;5063275;28;20236;-70
2022/05/04 12:52:51;;;;;;;16.83;7.30;;;26.10;94.30;;;;;;5064922;28;20989;-69
2022/05/04 12:55:18;;;;;;;8.53;7.13;;;25.60;93.90;;;;;;5063798;28;20501;-70
2022/05/04 12:57:44;;;;;;;9.80;8.07;;;25.60;95.40;;;;;;5061293;28;20487;-70
2022/05/04 13:00:13;;;;;;;7.70;7.00;;;26.10;93.20;;;;;;5047378;28;20471;-70
2022/05/04 13:02:40;;;;;;;13.30;8.10;;;26.50;93.10;;;;;;5062542;28;20561;-69
2022/05/04 13:05:07;;;;;;;7.03;6.23;;;26.70;92.20;;;;;;5063611;28;22499;-70
2022/05/04 13:07:35;;;;;;;7.03;6.33;;;26.80;91.10;;;;;;5068077;28;20434;-70
2022/05/04 13:10:02;;;;;;;9.50;6.60;;;26.40;91.90;;;;;;5067416;28;20453;-70
2022/05/04 13:12:29;;;;;;;7.23;6.23;;;26.10;92.40;;;;;;5063777;28;21052;-69
2022/05/04 13:14:56;;;;;;;6.87;6.20;;;25.70;91.80;;;;;;5063442;28;20430;-69
2022/05/04 13:17:22;;;;;;;;;;;25.10;90.90;;;;;;5068790;28;20504;-69
2022/05/04 13:19:49;;;;;;;;;;;24.50;92.30;;;;;;5061404;28;19974;-69
2022/05/04 13:22:15;;;;;;;;;;;24.50;92.30;;;;;;5059496;28;19928;-70
2022/05/04 13:24:43;;;;;;;;;;;24.50;91.50;;;;;;5064128;28;20376;-70
2022/05/04 13:27:10;;;;;;;;;;;24.50;92.10;;;;;;5066587;28;19929;-69
2022/05/04 13:29:37;;;;;;;;;;;24.50;91.60;;;;;;5067036;28;20008;-69
2022/05/04 13:32:05;;;;;;;;;;;24.60;90.00;;;;;;5060632;28;19978;-68
2022/05/04 13:34:31;;;;;;;;;;;24.30;89.90;;;;;;5057900;28;20026;-69
2022/05/04 13:36:58;;;;;;;;;;;24.20;90.80;;;;;;5067913;28;20512;-69
2022/05/04 13:39:24;;;;;;;;;;;24.40;89.60;;;;;;5065550;28;19986;-69
2022/05/04 13:41:53;;;;;;;;;;;24.80;88.60;;;;;;5064410;28;19924;-68
2022/05/04 13:44:19;;;;;;;;;;;25.10;90.00;;;;;;5066428;28;20271;-69
2022/05/04 13:46:46;;;;;;;;;;;25.50;89.60;;;;;;5068643;28;19936;-68
2022/05/04 13:49:12;;;;;;;;;;;26.20;87.60;;;;;;5067792;28;19928;-68
2022/05/04 13:54:24;;;;;;;;;;;26.80;87.60;;;;;;5067477;28;19927;-69
2022/05/04 13:56:51;;;;;;;;;;;27.30;87.30;;;;;;5073962;28;19928;-69
2022/05/04 13:59:19;;;;;;;3.80;3.53;;;27.90;84.80;;;;;;5068944;28;19931;-69
2022/05/04 14:01:46;;;;;;;4.43;4.03;;;28.30;86.00;;;;;;5069901;28;20209;-69
2022/05/04 14:04:13;;;;;;;3.97;3.67;;;28.40;80.60;;;;;;5068673;28;20433;-68
2022/05/04 14:06:41;;;;;;;5.43;3.33;;;28.20;83.10;;;;;;5069824;28;20483;-68
2022/05/04 14:09:08;;;;;;;4.80;4.00;;;28.30;82.30;;;;;;5067344;28;20543;-68
2022/05/04 14:11:35;;;;;;;3.53;3.23;;;28.80;81.10;;;;;;5069080;28;20434;-69
2022/05/04 14:16:47;;;;;;;4.83;2.97;;;29.90;79.10;;;;;;5067166;28;20428;-70
2022/05/04 14:19:14;;;;;;;3.20;2.10;;;30.30;71.70;;;;;;5065657;28;20974;-70
2022/05/04 14:21:41;;;;;;;2.17;2.00;;;30.20;73.60;;;;;;5066886;28;20944;-70
2022/05/04 14:24:07;;;;;;;4.20;2.60;;;30.60;69.30;;;;;;5068525;28;20433;-69
2022/05/04 14:26:34;;;;;;;3.00;2.60;;;30.60;67.80;;;;;;5066542;28;21008;-69
2022/05/04 14:29:01;;;;;;;2.23;1.63;;;30.60;63.50;;;;;;5066514;28;20453;-69
2022/05/04 14:31:28;;;;;;;3.53;1.90;;;30.60;65.80;;;;;;5063641;28;20452;-69
2022/05/04 14:33:56;;;;;;;1.90;1.73;;;31.10;63.40;;;;;;5068681;28;20451;-69
2022/05/04 14:36:23;;;;;;;2.80;1.90;;;31.60;61.70;;;;;;5065820;28;20507;-70
2022/05/04 14:38:49;;;;;;;1.73;1.63;;;31.70;60.40;;;;;;5064302;28;20453;-70
2022/05/04 14:41:16;;;;;;;3.17;1.83;;;31.70;57.50;;;;;;5067381;28;20889;-69
2022/05/04 14:43:42;;;;;;;1.80;1.70;;;31.70;55.90;;;;;;5065653;28;20959;-70
2022/05/04 14:46:09;;;;;;;2.37;1.57;;;31.80;56.40;;;;;;5068297;28;20987;-69
2022/05/04 14:48:36;;;;;;;1.73;1.63;;;32.00;56.60;;;;;;5065126;28;20451;-69